sensor_id;sensor_type;location;lat;lon;timestamp;temperature;humidity
13256;DHT22;37913;48.370;10.930;2023-09-19T00:00:56;15.70;1.00
13256;DHT22;37913;48.370;10.930;2023-09-19T00:03:23;15.70;1.00
13256;DHT22;37913;48.370;10.930;2023-09-19T00:05:52;15.70;1.00
13256;DHT22;37913;48.370;10.930;2023-09-19T00:08:21;15.80;1.00
13256;DHT22;37913;48.370;10.930;2023-09-19T00:10:50;15.80;1.00
13256;DHT22;37913;48.370;10.930;2023-09-19T00:13:19;15.70;1.00
13256;DHT22;37913;48.370;10.930;2023-09-19T00:15:47;15.90;1.00
13256;DHT22;37913;48.370;10.930;2023-09-19T00:18:15;15.90;1.00
13256;DHT22;37913;48.370;10.930;2023-09-19T00:20:41;15.80;1.00
13256;DHT22;37913;48.370;10.930;2023-09-19T00:23:10;15.80;1.00
13256;DHT22;37913;48.370;10.930;2023-09-19T00:25:37;15.80;1.00
13256;DHT22;37913;48.370;10.930;2023-09-19T00:28:04;15.80;1.00
13256;DHT22;37913;48.370;10.930;2023-09-19T00:30:31;15.80;1.00
13256;DHT22;37913;48.370;10.930;2023-09-19T00:32:58;15.70;1.00
13256;DHT22;37913;48.370;10.930;2023-09-19T00:35:26;16.10;1.00
13256;DHT22;37913;48.370;10.930;2023-09-19T00:37:54;15.80;1.00
13256;DHT22;37913;48.370;10.930;2023-09-19T00:40:22;15.70;1.00
13256;DHT22;37913;48.370;10.930;2023-09-19T00:42:51;15.70;1.00
13256;DHT22;37913;48.370;10.930;2023-09-19T00:45:18;15.90;1.00
13256;DHT22;37913;48.370;10.930;2023-09-19T00:47:48;15.90;1.00
13256;DHT22;37913;48.370;10.930;2023-09-19T00:50:17;15.90;1.00
13256;DHT22;37913;48.370;10.930;2023-09-19T00:52:46;16.00;1.00
13256;DHT22;37913;48.370;10.930;2023-09-19T00:55:16;16.10;1.00
13256;DHT22;37913;48.370;10.930;2023-09-19T00:57:47;16.20;1.00
13256;DHT22;37913;48.370;10.930;2023-09-19T01:00:15;16.20;1.00
13256;DHT22;37913;48.370;10.930;2023-09-19T01:02:44;16.20;1.00
13256;DHT22;37913;48.370;10.930;2023-09-19T01:05:12;16.20;1.00
13256;DHT22;37913;48.370;10.930;2023-09-19T01:07:39;16.20;1.00
13256;DHT22;37913;48.370;10.930;2023-09-19T01:10:08;16.30;1.00
13256;DHT22;37913;48.370;10.930;2023-09-19T01:12:48;16.30;1.00
13256;DHT22;37913;48.370;10.930;2023-09-19T01:15:26;16.30;1.00
13256;DHT22;37913;48.370;10.930;2023-09-19T01:18:00;16.30;1.00
13256;DHT22;37913;48.370;10.930;2023-09-19T01:20:37;16.30;1.00
13256;DHT22;37913;48.370;10.930;2023-09-19T01:23:13;16.30;1.00
13256;DHT22;37913;48.370;10.930;2023-09-19T01:26:05;16.30;1.00
13256;DHT22;37913;48.370;10.930;2023-09-19T01:28:52;16.20;1.00
13256;DHT22;37913;48.370;10.930;2023-09-19T01:31:23;16.20;1.00
13256;DHT22;37913;48.370;10.930;2023-09-19T01:33:59;16.20;1.00
13256;DHT22;37913;48.370;10.930;2023-09-19T01:36:31;16.00;1.00
13256;DHT22;37913;48.370;10.930;2023-09-19T01:39:08;16.00;1.00
13256;DHT22;37913;48.370;10.930;2023-09-19T01:41:54;16.10;1.00
13256;DHT22;37913;48.370;10.930;2023-09-19T01:44:29;16.00;1.00
13256;DHT22;37913;48.370;10.930;2023-09-19T01:47:04;16.00;1.00
13256;DHT22;37913;48.370;10.930;2023-09-19T01:49:41;16.10;1.00
13256;DHT22;37913;48.370;10.930;2023-09-19T01:52:12;16.00;1.00
13256;DHT22;37913;48.370;10.930;2023-09-19T01:54:46;16.00;1.00
13256;DHT22;37913;48.370;10.930;2023-09-19T01:57:20;16.00;1.00
13256;DHT22;37913;48.370;10.930;2023-09-19T01:59:52;15.90;2.60
13256;DHT22;37913;48.370;10.930;2023-09-19T02:02:23;15.90;1.00
13256;DHT22;37913;48.370;10.930;2023-09-19T02:04:51;15.90;23.20
13256;DHT22;37913;48.370;10.930;2023-09-19T02:07:18;15.80;37.40
13256;DHT22;37913;48.370;10.930;2023-09-19T02:09:45;15.80;60.80
13256;DHT22;37913;48.370;10.930;2023-09-19T02:12:13;15.70;90.40
13256;DHT22;37913;48.370;10.930;2023-09-19T02:14:40;15.70;99.10
13256;DHT22;37913;48.370;10.930;2023-09-19T02:17:07;15.60;99.90
13256;DHT22;37913;48.370;10.930;2023-09-19T02:19:38;15.60;99.90
13256;DHT22;37913;48.370;10.930;2023-09-19T02:22:06;15.60;99.90
13256;DHT22;37913;48.370;10.930;2023-09-19T02:24:36;15.50;99.90
13256;DHT22;37913;48.370;10.930;2023-09-19T02:27:04;15.50;99.90
13256;DHT22;37913;48.370;10.930;2023-09-19T02:29:31;15.40;99.90
13256;DHT22;37913;48.370;10.930;2023-09-19T02:31:58;15.50;99.90
13256;DHT22;37913;48.370;10.930;2023-09-19T02:34:25;15.50;99.90
13256;DHT22;37913;48.370;10.930;2023-09-19T02:36:54;16.60;99.90
13256;DHT22;37913;48.370;10.930;2023-09-19T02:39:21;15.50;99.90
13256;DHT22;37913;48.370;10.930;2023-09-19T02:41:49;15.50;99.90
13256;DHT22;37913;48.370;10.930;2023-09-19T02:44:16;15.50;99.90
13256;DHT22;37913;48.370;10.930;2023-09-19T02:46:45;15.50;99.90
13256;DHT22;37913;48.370;10.930;2023-09-19T02:49:12;15.50;99.90
13256;DHT22;37913;48.370;10.930;2023-09-19T02:51:40;15.60;99.90
13256;DHT22;37913;48.370;10.930;2023-09-19T02:54:08;15.50;99.90
13256;DHT22;37913;48.370;10.930;2023-09-19T02:56:36;15.60;95.40
13256;DHT22;37913;48.370;10.930;2023-09-19T02:59:05;15.60;38.80
13256;DHT22;37913;48.370;10.930;2023-09-19T03:01:33;15.70;43.40
13256;DHT22;37913;48.370;10.930;2023-09-19T03:04:00;15.70;18.30
13256;DHT22;37913;48.370;10.930;2023-09-19T03:06:28;15.70;1.00
13256;DHT22;37913;48.370;10.930;2023-09-19T03:08:56;15.80;1.00
13256;DHT22;37913;48.370;10.930;2023-09-19T03:11:27;15.70;1.00
13256;DHT22;37913;48.370;10.930;2023-09-19T03:13:54;15.70;1.00
13256;DHT22;37913;48.370;10.930;2023-09-19T03:16:21;15.80;1.00
13256;DHT22;37913;48.370;10.930;2023-09-19T03:18:48;15.80;1.00
13256;DHT22;37913;48.370;10.930;2023-09-19T03:21:15;15.80;1.00
13256;DHT22;37913;48.370;10.930;2023-09-19T03:23:44;15.70;1.00
13256;DHT22;37913;48.370;10.930;2023-09-19T03:26:12;15.80;1.00
13256;DHT22;37913;48.370;10.930;2023-09-19T03:28:41;15.70;1.00
13256;DHT22;37913;48.370;10.930;2023-09-19T03:31:09;15.70;1.00
13256;DHT22;37913;48.370;10.930;2023-09-19T03:33:36;15.60;1.00
13256;DHT22;37913;48.370;10.930;2023-09-19T03:36:04;15.50;1.00
13256;DHT22;37913;48.370;10.930;2023-09-19T03:38:32;15.50;1.00
13256;DHT22;37913;48.370;10.930;2023-09-19T03:41:00;15.60;1.00
13256;DHT22;37913;48.370;10.930;2023-09-19T03:43:27;15.70;1.00
13256;DHT22;37913;48.370;10.930;2023-09-19T03:45:55;15.70;1.00
13256;DHT22;37913;48.370;10.930;2023-09-19T03:48:23;15.80;1.00
13256;DHT22;37913;48.370;10.930;2023-09-19T03:50:50;15.80;1.00
13256;DHT22;37913;48.370;10.930;2023-09-19T03:53:16;15.80;18.80
13256;DHT22;37913;48.370;10.930;2023-09-19T03:55:45;15.90;1.00
13256;DHT22;37913;48.370;10.930;2023-09-19T03:58:12;15.90;1.00
13256;DHT22;37913;48.370;10.930;2023-09-19T04:00:39;16.00;1.00
13256;DHT22;37913;48.370;10.930;2023-09-19T04:03:07;16.00;1.00
13256;DHT22;37913;48.370;10.930;2023-09-19T04:05:36;16.00;1.00
13256;DHT22;37913;48.370;10.930;2023-09-19T04:08:03;16.10;1.00
13256;DHT22;37913;48.370;10.930;2023-09-19T04:10:30;16.10;1.00
13256;DHT22;37913;48.370;10.930;2023-09-19T04:12:57;16.10;1.00
13256;DHT22;37913;48.370;10.930;2023-09-19T04:15:24;16.10;1.00
13256;DHT22;37913;48.370;10.930;2023-09-19T04:17:51;16.10;1.00
13256;DHT22;37913;48.370;10.930;2023-09-19T04:20:19;16.00;1.00
13256;DHT22;37913;48.370;10.930;2023-09-19T04:22:48;16.10;1.00
13256;DHT22;37913;48.370;10.930;2023-09-19T04:25:15;16.10;1.00
13256;DHT22;37913;48.370;10.930;2023-09-19T04:27:42;16.40;1.00
13256;DHT22;37913;48.370;10.930;2023-09-19T04:30:11;16.00;1.00
13256;DHT22;37913;48.370;10.930;2023-09-19T04:32:38;16.00;1.00
13256;DHT22;37913;48.370;10.930;2023-09-19T04:35:07;16.00;1.00
13256;DHT22;37913;48.370;10.930;2023-09-19T04:37:37;16.00;1.00
13256;DHT22;37913;48.370;10.930;2023-09-19T04:40:06;16.00;1.00
13256;DHT22;37913;48.370;10.930;2023-09-19T04:42:39;15.90;1.00
13256;DHT22;37913;48.370;10.930;2023-09-19T04:45:06;15.90;1.00
13256;DHT22;37913;48.370;10.930;2023-09-19T04:47:35;15.80;1.00
13256;DHT22;37913;48.370;10.930;2023-09-19T04:50:07;15.70;1.00
13256;DHT22;37913;48.370;10.930;2023-09-19T04:52:39;15.70;1.00
13256;DHT22;37913;48.370;10.930;2023-09-19T04:55:08;15.70;1.00
13256;DHT22;37913;48.370;10.930;2023-09-19T04:57:36;15.70;1.00
13256;DHT22;37913;48.370;10.930;2023-09-19T05:00:05;15.70;1.00
13256;DHT22;37913;48.370;10.930;2023-09-19T05:02:38;15.70;1.00
13256;DHT22;37913;48.370;10.930;2023-09-19T05:05:06;15.70;1.00
13256;DHT22;37913;48.370;10.930;2023-09-19T05:07:34;15.60;5.40
13256;DHT22;37913;48.370;10.930;2023-09-19T05:10:03;15.60;18.50
13256;DHT22;37913;48.370;10.930;2023-09-19T05:12:33;15.50;22.40
13256;DHT22;37913;48.370;10.930;2023-09-19T05:15:01;15.40;60.10
13256;DHT22;37913;48.370;10.930;2023-09-19T05:17:29;15.30;79.50
13256;DHT22;37913;48.370;10.930;2023-09-19T05:19:56;15.40;87.50
13256;DHT22;37913;48.370;10.930;2023-09-19T05:22:23;15.40;81.80
13256;DHT22;37913;48.370;10.930;2023-09-19T05:24:51;15.40;80.80
13256;DHT22;37913;48.370;10.930;2023-09-19T05:27:19;15.50;63.50
13256;DHT22;37913;48.370;10.930;2023-09-19T05:29:47;15.60;22.70
13256;DHT22;37913;48.370;10.930;2023-09-19T05:32:16;15.70;1.00
13256;DHT22;37913;48.370;10.930;2023-09-19T05:34:45;15.80;1.00
13256;DHT22;37913;48.370;10.930;2023-09-19T05:37:13;15.90;1.00
13256;DHT22;37913;48.370;10.930;2023-09-19T05:39:42;15.90;1.00
13256;DHT22;37913;48.370;10.930;2023-09-19T05:42:09;16.20;1.00
13256;DHT22;37913;48.370;10.930;2023-09-19T05:44:37;16.40;1.00
13256;DHT22;37913;48.370;10.930;2023-09-19T05:47:12;16.40;1.00
13256;DHT22;37913;48.370;10.930;2023-09-19T05:49:39;16.40;1.00
13256;DHT22;37913;48.370;10.930;2023-09-19T05:52:06;16.30;1.00
13256;DHT22;37913;48.370;10.930;2023-09-19T05:54:33;16.40;1.00
13256;DHT22;37913;48.370;10.930;2023-09-19T05:57:00;16.40;1.00
13256;DHT22;37913;48.370;10.930;2023-09-19T05:59:27;16.40;1.00
13256;DHT22;37913;48.370;10.930;2023-09-19T06:01:55;16.30;1.00
13256;DHT22;37913;48.370;10.930;2023-09-19T06:04:22;16.30;1.00
13256;DHT22;37913;48.370;10.930;2023-09-19T06:06:50;16.50;1.00
13256;DHT22;37913;48.370;10.930;2023-09-19T06:09:17;16.60;1.00
13256;DHT22;37913;48.370;10.930;2023-09-19T06:11:44;17.10;1.00
13256;DHT22;37913;48.370;10.930;2023-09-19T06:14:11;17.50;99.90
13256;DHT22;37913;48.370;10.930;2023-09-19T06:16:38;17.70;1.00
13256;DHT22;37913;48.370;10.930;2023-09-19T06:19:08;17.40;1.00
13256;DHT22;37913;48.370;10.930;2023-09-19T06:21:35;17.60;1.00
13256;DHT22;37913;48.370;10.930;2023-09-19T06:24:03;17.40;1.00
13256;DHT22;37913;48.370;10.930;2023-09-19T06:26:30;17.40;1.00
13256;DHT22;37913;48.370;10.930;2023-09-19T06:28:57;17.30;1.00
13256;DHT22;37913;48.370;10.930;2023-09-19T06:31:25;17.30;1.00
13256;DHT22;37913;48.370;10.930;2023-09-19T06:33:52;17.30;1.00
13256;DHT22;37913;48.370;10.930;2023-09-19T06:36:21;17.20;1.00
13256;DHT22;37913;48.370;10.930;2023-09-19T06:38:47;17.20;1.00
13256;DHT22;37913;48.370;10.930;2023-09-19T06:41:17;17.20;30.00
13256;DHT22;37913;48.370;10.930;2023-09-19T06:43:44;17.20;1.00
13256;DHT22;37913;48.370;10.930;2023-09-19T06:46:11;17.20;1.00
13256;DHT22;37913;48.370;10.930;2023-09-19T06:48:38;17.10;99.90
13256;DHT22;37913;48.370;10.930;2023-09-19T06:51:06;17.20;99.90
13256;DHT22;37913;48.370;10.930;2023-09-19T06:53:35;17.40;1.00
13256;DHT22;37913;48.370;10.930;2023-09-19T06:56:02;17.60;90.00
13256;DHT22;37913;48.370;10.930;2023-09-19T06:58:29;17.60;1.00
13256;DHT22;37913;48.370;10.930;2023-09-19T07:00:57;17.70;99.90
13256;DHT22;37913;48.370;10.930;2023-09-19T07:03:23;17.90;1.00
13256;DHT22;37913;48.370;10.930;2023-09-19T07:05:52;18.00;1.00
13256;DHT22;37913;48.370;10.930;2023-09-19T07:08:21;18.10;1.00
13256;DHT22;37913;48.370;10.930;2023-09-19T07:10:50;18.10;1.00
13256;DHT22;37913;48.370;10.930;2023-09-19T07:13:19;17.80;1.00
13256;DHT22;37913;48.370;10.930;2023-09-19T07:15:46;17.90;1.00
13256;DHT22;37913;48.370;10.930;2023-09-19T07:18:14;18.00;1.00
13256;DHT22;37913;48.370;10.930;2023-09-19T07:20:42;18.10;1.00
13256;DHT22;37913;48.370;10.930;2023-09-19T07:23:15;17.80;1.00
13256;DHT22;37913;48.370;10.930;2023-09-19T07:25:43;18.10;1.00
13256;DHT22;37913;48.370;10.930;2023-09-19T07:28:13;18.00;99.90
13256;DHT22;37913;48.370;10.930;2023-09-19T07:30:40;18.20;99.90
13256;DHT22;37913;48.370;10.930;2023-09-19T07:33:08;18.00;1.00
13256;DHT22;37913;48.370;10.930;2023-09-19T07:35:37;18.20;23.20
13256;DHT22;37913;48.370;10.930;2023-09-19T07:38:05;18.60;1.00
13256;DHT22;37913;48.370;10.930;2023-09-19T07:40:33;19.30;1.00
13256;DHT22;37913;48.370;10.930;2023-09-19T07:43:00;20.20;1.00
13256;DHT22;37913;48.370;10.930;2023-09-19T07:45:29;20.50;99.90
13256;DHT22;37913;48.370;10.930;2023-09-19T07:47:57;21.50;1.00
13256;DHT22;37913;48.370;10.930;2023-09-19T07:50:24;22.90;99.90
13256;DHT22;37913;48.370;10.930;2023-09-19T07:52:52;23.70;99.90
13256;DHT22;37913;48.370;10.930;2023-09-19T07:55:21;23.70;99.90
13256;DHT22;37913;48.370;10.930;2023-09-19T07:57:50;23.90;99.90
13256;DHT22;37913;48.370;10.930;2023-09-19T08:00:17;24.90;99.90
13256;DHT22;37913;48.370;10.930;2023-09-19T08:02:45;25.90;99.90
13256;DHT22;37913;48.370;10.930;2023-09-19T08:05:13;26.20;99.90
13256;DHT22;37913;48.370;10.930;2023-09-19T08:07:43;26.60;99.90
13256;DHT22;37913;48.370;10.930;2023-09-19T08:10:10;25.90;99.90
13256;DHT22;37913;48.370;10.930;2023-09-19T08:12:38;25.90;99.90
13256;DHT22;37913;48.370;10.930;2023-09-19T08:15:12;26.00;99.90
13256;DHT22;37913;48.370;10.930;2023-09-19T08:17:39;26.00;99.90
13256;DHT22;37913;48.370;10.930;2023-09-19T08:20:08;27.40;99.90
13256;DHT22;37913;48.370;10.930;2023-09-19T08:22:42;29.80;99.90
13256;DHT22;37913;48.370;10.930;2023-09-19T08:25:11;29.60;99.90
13256;DHT22;37913;48.370;10.930;2023-09-19T08:27:38;29.00;99.90
13256;DHT22;37913;48.370;10.930;2023-09-19T08:30:06;28.20;99.90
13256;DHT22;37913;48.370;10.930;2023-09-19T08:32:33;26.10;99.90
13256;DHT22;37913;48.370;10.930;2023-09-19T08:35:00;25.10;99.90
13256;DHT22;37913;48.370;10.930;2023-09-19T08:37:29;24.30;99.90
13256;DHT22;37913;48.370;10.930;2023-09-19T08:39:56;24.60;99.90
13256;DHT22;37913;48.370;10.930;2023-09-19T08:42:23;24.00;99.90
13256;DHT22;37913;48.370;10.930;2023-09-19T08:44:51;23.60;99.90
13256;DHT22;37913;48.370;10.930;2023-09-19T08:47:26;24.20;99.90
13256;DHT22;37913;48.370;10.930;2023-09-19T08:50:02;25.90;99.90
13256;DHT22;37913;48.370;10.930;2023-09-19T08:52:39;27.30;99.90
13256;DHT22;37913;48.370;10.930;2023-09-19T08:55:12;27.60;99.90
13256;DHT22;37913;48.370;10.930;2023-09-19T08:57:46;26.00;99.90
13256;DHT22;37913;48.370;10.930;2023-09-19T09:00:15;25.60;99.90
13256;DHT22;37913;48.370;10.930;2023-09-19T09:02:44;25.70;99.90
13256;DHT22;37913;48.370;10.930;2023-09-19T09:05:14;26.70;99.90
13256;DHT22;37913;48.370;10.930;2023-09-19T09:07:43;29.10;99.90
13256;DHT22;37913;48.370;10.930;2023-09-19T09:10:11;28.20;99.90
13256;DHT22;37913;48.370;10.930;2023-09-19T09:12:38;30.00;98.70
13256;DHT22;37913;48.370;10.930;2023-09-19T09:15:07;30.00;96.50
13256;DHT22;37913;48.370;10.930;2023-09-19T09:17:37;28.70;97.90
13256;DHT22;37913;48.370;10.930;2023-09-19T09:20:05;26.60;99.90
13256;DHT22;37913;48.370;10.930;2023-09-19T09:22:33;26.40;99.90
13256;DHT22;37913;48.370;10.930;2023-09-19T09:25:03;26.30;99.90
13256;DHT22;37913;48.370;10.930;2023-09-19T09:27:30;26.50;99.90
13256;DHT22;37913;48.370;10.930;2023-09-19T09:29:58;27.50;99.90
13256;DHT22;37913;48.370;10.930;2023-09-19T09:32:26;28.20;99.70
13256;DHT22;37913;48.370;10.930;2023-09-19T09:34:56;26.60;99.90
13256;DHT22;37913;48.370;10.930;2023-09-19T09:37:23;25.50;99.90
13256;DHT22;37913;48.370;10.930;2023-09-19T09:39:53;26.70;99.90
13256;DHT22;37913;48.370;10.930;2023-09-19T09:42:32;27.50;99.90
13256;DHT22;37913;48.370;10.930;2023-09-19T09:45:22;30.40;96.40
13256;DHT22;37913;48.370;10.930;2023-09-19T09:47:54;28.80;96.60
13256;DHT22;37913;48.370;10.930;2023-09-19T09:50:26;27.20;99.40
13256;DHT22;37913;48.370;10.930;2023-09-19T09:52:55;26.60;99.90
13256;DHT22;37913;48.370;10.930;2023-09-19T09:56:00;27.00;99.90
13256;DHT22;37913;48.370;10.930;2023-09-19T09:58:29;29.70;96.80
13256;DHT22;37913;48.370;10.930;2023-09-19T10:00:58;31.10;92.80
13256;DHT22;37913;48.370;10.930;2023-09-19T10:03:32;29.60;93.90
13256;DHT22;37913;48.370;10.930;2023-09-19T10:06:05;28.20;95.70
13256;DHT22;37913;48.370;10.930;2023-09-19T10:09:00;27.00;97.70
13256;DHT22;37913;48.370;10.930;2023-09-19T10:11:43;25.90;99.60
13256;DHT22;37913;48.370;10.930;2023-09-19T10:14:13;28.20;97.80
13256;DHT22;37913;48.370;10.930;2023-09-19T10:16:45;31.20;93.30
13256;DHT22;37913;48.370;10.930;2023-09-19T10:19:16;34.50;86.20
13256;DHT22;37913;48.370;10.930;2023-09-19T10:21:46;36.40;76.50
13256;DHT22;37913;48.370;10.930;2023-09-19T10:24:14;37.40;72.00
13256;DHT22;37913;48.370;10.930;2023-09-19T10:26:44;38.30;67.30
13256;DHT22;37913;48.370;10.930;2023-09-19T10:29:13;39.30;64.50
13256;DHT22;37913;48.370;10.930;2023-09-19T10:31:42;38.40;63.80
13256;DHT22;37913;48.370;10.930;2023-09-19T10:34:14;40.60;61.90
13256;DHT22;37913;48.370;10.930;2023-09-19T10:36:44;42.50;59.30
13256;DHT22;37913;48.370;10.930;2023-09-19T10:39:14;40.90;57.10
13256;DHT22;37913;48.370;10.930;2023-09-19T10:41:47;39.30;58.40
13256;DHT22;37913;48.370;10.930;2023-09-19T10:44:23;39.60;57.00
13256;DHT22;37913;48.370;10.930;2023-09-19T10:46:52;37.60;56.70
13256;DHT22;37913;48.370;10.930;2023-09-19T10:49:19;34.80;60.40
13256;DHT22;37913;48.370;10.930;2023-09-19T10:51:49;36.90;60.50
13256;DHT22;37913;48.370;10.930;2023-09-19T10:54:19;32.10;63.50
13256;DHT22;37913;48.370;10.930;2023-09-19T10:56:53;29.90;74.00
13256;DHT22;37913;48.370;10.930;2023-09-19T10:59:25;28.70;82.80
13256;DHT22;37913;48.370;10.930;2023-09-19T11:02:00;29.60;81.70
13256;DHT22;37913;48.370;10.930;2023-09-19T11:04:43;28.50;84.50
13256;DHT22;37913;48.370;10.930;2023-09-19T11:07:14;26.60;90.80
13256;DHT22;37913;48.370;10.930;2023-09-19T11:09:48;25.70;94.10
13256;DHT22;37913;48.370;10.930;2023-09-19T11:12:49;25.80;95.00
13256;DHT22;37913;48.370;10.930;2023-09-19T11:18:53;24.70;97.50
13256;DHT22;37913;48.370;10.930;2023-09-19T11:21:51;27.70;93.90
13256;DHT22;37913;48.370;10.930;2023-09-19T11:24:31;29.90;90.50
13256;DHT22;37913;48.370;10.930;2023-09-19T11:27:15;32.40;84.30
13256;DHT22;37913;48.370;10.930;2023-09-19T11:29:43;31.90;83.10
13256;DHT22;37913;48.370;10.930;2023-09-19T11:32:10;30.00;90.60
13256;DHT22;37913;48.370;10.930;2023-09-19T11:34:40;27.80;96.60
13256;DHT22;37913;48.370;10.930;2023-09-19T11:40:11;24.40;99.90
13256;DHT22;37913;48.370;10.930;2023-09-19T11:42:42;23.30;99.90
13256;DHT22;37913;48.370;10.930;2023-09-19T11:48:12;22.00;1.00
13256;DHT22;37913;48.370;10.930;2023-09-19T11:50:43;22.80;1.00
13256;DHT22;37913;48.370;10.930;2023-09-19T11:53:11;24.40;99.90
13256;DHT22;37913;48.370;10.930;2023-09-19T11:55:38;29.30;99.90
13256;DHT22;37913;48.370;10.930;2023-09-19T11:58:07;33.20;89.70
13256;DHT22;37913;48.370;10.930;2023-09-19T12:00:35;34.00;80.20
13256;DHT22;37913;48.370;10.930;2023-09-19T12:03:09;36.90;71.40
13256;DHT22;37913;48.370;10.930;2023-09-19T12:05:36;35.70;65.00
13256;DHT22;37913;48.370;10.930;2023-09-19T12:08:05;37.50;64.60
13256;DHT22;37913;48.370;10.930;2023-09-19T12:10:43;41.30;59.70
13256;DHT22;37913;48.370;10.930;2023-09-19T12:13:15;42.70;53.50
13256;DHT22;37913;48.370;10.930;2023-09-19T12:15:41;41.70;53.60
13256;DHT22;37913;48.370;10.930;2023-09-19T12:18:25;44.10;49.70
13256;DHT22;37913;48.370;10.930;2023-09-19T12:20:52;45.40;47.00
13256;DHT22;37913;48.370;10.930;2023-09-19T12:23:22;45.00;43.90
13256;DHT22;37913;48.370;10.930;2023-09-19T12:25:49;44.60;43.10
13256;DHT22;37913;48.370;10.930;2023-09-19T12:28:19;40.50;45.20
13256;DHT22;37913;48.370;10.930;2023-09-19T12:30:47;40.60;46.20
13256;DHT22;37913;48.370;10.930;2023-09-19T12:33:16;41.10;42.80
13256;DHT22;37913;48.370;10.930;2023-09-19T12:35:44;42.30;42.70
13256;DHT22;37913;48.370;10.930;2023-09-19T12:38:24;43.80;40.70
13256;DHT22;37913;48.370;10.930;2023-09-19T12:40:55;45.30;38.60
13256;DHT22;37913;48.370;10.930;2023-09-19T12:43:22;45.70;35.40
13256;DHT22;37913;48.370;10.930;2023-09-19T12:45:50;44.10;37.00
13256;DHT22;37913;48.370;10.930;2023-09-19T12:48:20;43.90;35.30
13256;DHT22;37913;48.370;10.930;2023-09-19T12:51:00;46.00;32.90
13256;DHT22;37913;48.370;10.930;2023-09-19T12:53:32;46.40;28.50
13256;DHT22;37913;48.370;10.930;2023-09-19T12:56:02;42.10;25.50
13256;DHT22;37913;48.370;10.930;2023-09-19T12:58:32;38.40;27.80
13256;DHT22;37913;48.370;10.930;2023-09-19T13:01:00;41.40;24.00
13256;DHT22;37913;48.370;10.930;2023-09-19T13:03:28;40.80;17.80
13256;DHT22;37913;48.370;10.930;2023-09-19T13:06:01;41.70;17.10
13256;DHT22;37913;48.370;10.930;2023-09-19T13:08:32;39.40;18.40
13256;DHT22;37913;48.370;10.930;2023-09-19T13:11:07;36.30;21.40
13256;DHT22;37913;48.370;10.930;2023-09-19T13:13:37;34.00;24.70
13256;DHT22;37913;48.370;10.930;2023-09-19T13:16:04;31.40;28.20
13256;DHT22;37913;48.370;10.930;2023-09-19T13:18:45;31.00;31.90
13256;DHT22;37913;48.370;10.930;2023-09-19T13:21:13;35.50;25.20
13256;DHT22;37913;48.370;10.930;2023-09-19T13:23:51;37.30;21.90
13256;DHT22;37913;48.370;10.930;2023-09-19T13:26:18;39.80;18.70
13256;DHT22;37913;48.370;10.930;2023-09-19T13:28:45;36.20;21.30
13256;DHT22;37913;48.370;10.930;2023-09-19T13:31:13;36.00;22.20
13256;DHT22;37913;48.370;10.930;2023-09-19T13:33:43;35.80;22.90
13256;DHT22;37913;48.370;10.930;2023-09-19T13:36:11;39.30;1.00
13256;DHT22;37913;48.370;10.930;2023-09-19T13:38:38;37.60;1.00
13256;DHT22;37913;48.370;10.930;2023-09-19T13:41:07;34.80;1.00
13256;DHT22;37913;48.370;10.930;2023-09-19T13:43:35;32.60;1.00
13256;DHT22;37913;48.370;10.930;2023-09-19T13:46:02;31.70;1.00
13256;DHT22;37913;48.370;10.930;2023-09-19T13:48:29;30.40;1.00
13256;DHT22;37913;48.370;10.930;2023-09-19T13:50:56;32.30;1.00
13256;DHT22;37913;48.370;10.930;2023-09-19T13:53:23;34.80;1.00
13256;DHT22;37913;48.370;10.930;2023-09-19T13:55:51;37.60;1.00
13256;DHT22;37913;48.370;10.930;2023-09-19T13:58:19;39.80;1.00
13256;DHT22;37913;48.370;10.930;2023-09-19T14:00:47;37.90;1.00
13256;DHT22;37913;48.370;10.930;2023-09-19T14:03:13;40.40;1.00
13256;DHT22;37913;48.370;10.930;2023-09-19T14:05:40;42.50;1.00
13256;DHT22;37913;48.370;10.930;2023-09-19T14:08:08;43.20;1.00
13256;DHT22;37913;48.370;10.930;2023-09-19T14:10:35;44.10;1.00
13256;DHT22;37913;48.370;10.930;2023-09-19T14:13:01;42.50;1.00
13256;DHT22;37913;48.370;10.930;2023-09-19T14:15:30;42.40;1.00
13256;DHT22;37913;48.370;10.930;2023-09-19T14:17:58;41.60;1.00
13256;DHT22;37913;48.370;10.930;2023-09-19T14:20:27;38.90;1.00
13256;DHT22;37913;48.370;10.930;2023-09-19T14:22:54;38.80;1.00
13256;DHT22;37913;48.370;10.930;2023-09-19T14:25:21;36.00;1.00
13256;DHT22;37913;48.370;10.930;2023-09-19T14:27:48;35.00;1.00
13256;DHT22;37913;48.370;10.930;2023-09-19T14:30:15;37.30;1.00
13256;DHT22;37913;48.370;10.930;2023-09-19T14:32:43;38.30;1.00
13256;DHT22;37913;48.370;10.930;2023-09-19T14:35:10;38.20;1.00
13256;DHT22;37913;48.370;10.930;2023-09-19T14:37:40;36.80;1.00
13256;DHT22;37913;48.370;10.930;2023-09-19T14:40:08;35.70;1.00
13256;DHT22;37913;48.370;10.930;2023-09-19T14:42:39;33.70;1.00
13256;DHT22;37913;48.370;10.930;2023-09-19T14:45:07;31.40;1.00
13256;DHT22;37913;48.370;10.930;2023-09-19T14:47:33;29.80;1.00
13256;DHT22;37913;48.370;10.930;2023-09-19T14:50:03;28.40;1.00
13256;DHT22;37913;48.370;10.930;2023-09-19T14:52:32;26.50;1.00
13256;DHT22;37913;48.370;10.930;2023-09-19T14:55:00;26.00;1.00
13256;DHT22;37913;48.370;10.930;2023-09-19T14:57:27;25.40;1.00
13256;DHT22;37913;48.370;10.930;2023-09-19T14:59:55;24.30;1.00
13256;DHT22;37913;48.370;10.930;2023-09-19T15:02:21;23.50;1.00
13256;DHT22;37913;48.370;10.930;2023-09-19T15:04:48;22.80;1.00
13256;DHT22;37913;48.370;10.930;2023-09-19T15:07:17;22.90;1.00
13256;DHT22;37913;48.370;10.930;2023-09-19T15:09:45;23.10;1.00
13256;DHT22;37913;48.370;10.930;2023-09-19T15:12:12;23.10;1.00
13256;DHT22;37913;48.370;10.930;2023-09-19T15:14:40;23.00;1.00
13256;DHT22;37913;48.370;10.930;2023-09-19T15:17:07;22.90;1.00
13256;DHT22;37913;48.370;10.930;2023-09-19T15:19:34;22.70;1.00
13256;DHT22;37913;48.370;10.930;2023-09-19T15:22:03;22.50;1.00
13256;DHT22;37913;48.370;10.930;2023-09-19T15:24:32;22.30;1.00
13256;DHT22;37913;48.370;10.930;2023-09-19T15:26:58;22.30;1.00
13256;DHT22;37913;48.370;10.930;2023-09-19T15:29:25;22.20;1.00
13256;DHT22;37913;48.370;10.930;2023-09-19T15:31:54;22.20;1.00
13256;DHT22;37913;48.370;10.930;2023-09-19T15:34:22;22.30;1.00
13256;DHT22;37913;48.370;10.930;2023-09-19T15:36:49;22.10;1.00
13256;DHT22;37913;48.370;10.930;2023-09-19T15:39:17;22.20;1.00
13256;DHT22;37913;48.370;10.930;2023-09-19T15:41:46;22.10;1.00
13256;DHT22;37913;48.370;10.930;2023-09-19T15:44:15;21.90;1.00
13256;DHT22;37913;48.370;10.930;2023-09-19T15:46:43;21.90;1.00
13256;DHT22;37913;48.370;10.930;2023-09-19T15:49:10;21.90;1.00